Stolt Shearwater — ZCRD9 — position and weather

sailwx.info

Track history (hours):
 
Tides and Currents Weather Stations Pressure Air Temp Water Temp Dewpoint Dewpoint Depression Visibility Wind Speed Wind Dir Waves Ship Positions

Stolt Shearwater

Last reported at 2014-Oct-01 23:11 UTC. Time now 2014-Oct-02 12:36 UTC.
Position N 38°33' W 009°54'.

Length 96 m; draft 6.3 m.

Type: Ship (hazmat cat B). MMSI: 319402000.

Date/timePositionNaut miles runAvg speedWind from/ knotsBaromVisibWave heightAir tempDewpointWater temp
2014-Oct-01 23:11N 38°33' W 009°54'5 8.5
2014-Oct-01 22:32N 38°27' W 009°52'9 8.7
2014-Oct-01 21:32N 38°19' W 009°50'8 8.5
2014-Oct-01 20:33N 38°10' W 009°48'9 8.5
2014-Oct-01 19:32N 38°02' W 009°45'8 8.6
2014-Oct-01 18:34N 37°54' W 009°43'9 8.9
2014-Oct-01 17:33N 37°45' W 009°40'9 8.7
2014-Oct-01 16:33N 37°37' W 009°37'8 8.2
2014-Oct-01 15:33N 37°29' W 009°35'8 7.8
2014-Oct-01 14:33N 37°21' W 009°32'  
2014-Sep-28 06:30N 37°30' E 004°57'  
2014-Sep-23 15:26N 35°53' E 014°46'0 0.0
2014-Sep-23 14:11N 35°53' E 014°46'0 0.0
2014-Sep-23 13:32N 35°53' E 014°46'0 0.0
2014-Sep-23 12:32N 35°54' E 014°46'0 0.0
2014-Sep-23 11:33N 35°54' E 014°46'5 5.1
2014-Sep-23 10:33N 35°58' E 014°48'2110.5
2014-Sep-23 08:33N 36°12' E 015°08'  
Track history (hours):
 
Tides and Currents Weather Stations Pressure Air Temp Water Temp Dewpoint Dewpoint Depression Visibility Wind Speed Wind Dir Waves Ship Positions

Stolt Shearwater

Last reported at 2014-Oct-01 23:11 UTC. Time now 2014-Oct-02 12:36 UTC.
Position N 38°33' W 009°54'.

Length 96 m; draft 6.3 m.

Type: Ship (hazmat cat B). MMSI: 319402000.

Date/timePositionNaut miles runAvg speedWind from/ knotsBaromVisibWave heightAir tempDewpointWater temp
2014-Oct-01 23:11N 38°33' W 009°54'5 8.5
2014-Oct-01 22:32N 38°27' W 009°52'9 8.7
2014-Oct-01 21:32N 38°19' W 009°50'8 8.5
2014-Oct-01 20:33N 38°10' W 009°48'9 8.5
2014-Oct-01 19:32N 38°02' W 009°45'8 8.6
2014-Oct-01 18:34N 37°54' W 009°43'9 8.9
2014-Oct-01 17:33N 37°45' W 009°40'9 8.7
2014-Oct-01 16:33N 37°37' W 009°37'8 8.2
2014-Oct-01 15:33N 37°29' W 009°35'8 7.8
2014-Oct-01 14:33N 37°21' W 009°32'  
2014-Sep-28 06:30N 37°30' E 004°57'  
2014-Sep-23 15:26N 35°53' E 014°46'0 0.0
2014-Sep-23 14:11N 35°53' E 014°46'0 0.0
2014-Sep-23 13:32N 35°53' E 014°46'0 0.0
2014-Sep-23 12:32N 35°54' E 014°46'0 0.0
2014-Sep-23 11:33N 35°54' E 014°46'5 5.1
2014-Sep-23 10:33N 35°58' E 014°48'2110.5
2014-Sep-23 08:33N 36°12' E 015°08'  

Dump ship's entire track history